sensor_id;sensor_type;location;lat;lon;timestamp;P1;durP1;ratioP1;P2;durP2;ratioP2
48098;SDS011;33877;47.444;18.934;2022-08-19T00:00:11;10.85;;;6.28;;
48098;SDS011;33877;47.444;18.934;2022-08-19T00:02:44;10.25;;;6.57;;
48098;SDS011;33877;47.444;18.934;2022-08-19T00:05:17;12.02;;;6.85;;
48098;SDS011;33877;47.444;18.934;2022-08-19T00:07:49;8.27;;;5.95;;
48098;SDS011;33877;47.444;18.934;2022-08-19T00:10:19;11.93;;;7.25;;
48098;SDS011;33877;47.444;18.934;2022-08-19T00:12:52;9.38;;;7.12;;
48098;SDS011;33877;47.444;18.934;2022-08-19T00:15:21;14.52;;;7.28;;
48098;SDS011;33877;47.444;18.934;2022-08-19T00:17:54;12.25;;;6.80;;
48098;SDS011;33877;47.444;18.934;2022-08-19T00:20:25;9.00;;;6.37;;
48098;SDS011;33877;47.444;18.934;2022-08-19T00:22:57;11.00;;;7.03;;
48098;SDS011;33877;47.444;18.934;2022-08-19T00:25:28;11.32;;;6.82;;
48098;SDS011;33877;47.444;18.934;2022-08-19T00:27:58;10.38;;;7.37;;
48098;SDS011;33877;47.444;18.934;2022-08-19T00:30:27;8.30;;;6.85;;
48098;SDS011;33877;47.444;18.934;2022-08-19T00:32:57;11.50;;;7.37;;
48098;SDS011;33877;47.444;18.934;2022-08-19T00:35:28;11.27;;;7.45;;
48098;SDS011;33877;47.444;18.934;2022-08-19T00:37:59;11.63;;;7.70;;
48098;SDS011;33877;47.444;18.934;2022-08-19T00:40:30;9.98;;;7.18;;
48098;SDS011;33877;47.444;18.934;2022-08-19T00:43:00;8.75;;;7.35;;
48098;SDS011;33877;47.444;18.934;2022-08-19T00:45:33;12.55;;;8.52;;
48098;SDS011;33877;47.444;18.934;2022-08-19T00:48:04;11.43;;;6.55;;
48098;SDS011;33877;47.444;18.934;2022-08-19T00:50:43;10.30;;;7.40;;
48098;SDS011;33877;47.444;18.934;2022-08-19T00:53:20;13.20;;;7.28;;
48098;SDS011;33877;47.444;18.934;2022-08-19T00:55:53;10.60;;;7.30;;
48098;SDS011;33877;47.444;18.934;2022-08-19T00:58:27;9.60;;;7.10;;
48098;SDS011;33877;47.444;18.934;2022-08-19T01:01:02;12.20;;;7.32;;
48098;SDS011;33877;47.444;18.934;2022-08-19T01:06:21;10.10;;;7.15;;
48098;SDS011;33877;47.444;18.934;2022-08-19T01:08:50;14.43;;;7.45;;
48098;SDS011;33877;47.444;18.934;2022-08-19T01:11:19;10.25;;;6.78;;
48098;SDS011;33877;47.444;18.934;2022-08-19T01:13:50;10.70;;;7.40;;
48098;SDS011;33877;47.444;18.934;2022-08-19T01:16:22;11.82;;;7.72;;
48098;SDS011;33877;47.444;18.934;2022-08-19T01:18:54;11.93;;;7.30;;
48098;SDS011;33877;47.444;18.934;2022-08-19T01:24:06;13.32;;;7.40;;
48098;SDS011;33877;47.444;18.934;2022-08-19T01:26:41;9.88;;;6.80;;
48098;SDS011;33877;47.444;18.934;2022-08-19T01:29:13;12.02;;;7.25;;
48098;SDS011;33877;47.444;18.934;2022-08-19T01:31:42;11.12;;;6.68;;
48098;SDS011;33877;47.444;18.934;2022-08-19T01:34:10;21.20;;;7.65;;
48098;SDS011;33877;47.444;18.934;2022-08-19T01:36:41;11.12;;;6.75;;
48098;SDS011;33877;47.444;18.934;2022-08-19T01:39:14;9.50;;;6.97;;
48098;SDS011;33877;47.444;18.934;2022-08-19T01:41:46;8.85;;;6.90;;
48098;SDS011;33877;47.444;18.934;2022-08-19T01:44:15;10.95;;;7.20;;
48098;SDS011;33877;47.444;18.934;2022-08-19T01:49:16;10.57;;;6.80;;
48098;SDS011;33877;47.444;18.934;2022-08-19T01:51:46;10.98;;;7.93;;
48098;SDS011;33877;47.444;18.934;2022-08-19T01:54:15;12.90;;;7.07;;
48098;SDS011;33877;47.444;18.934;2022-08-19T01:56:55;11.70;;;7.12;;
48098;SDS011;33877;47.444;18.934;2022-08-19T01:59:27;12.02;;;7.25;;
48098;SDS011;33877;47.444;18.934;2022-08-19T02:01:56;12.43;;;6.82;;
48098;SDS011;33877;47.444;18.934;2022-08-19T02:04:24;9.93;;;7.10;;
48098;SDS011;33877;47.444;18.934;2022-08-19T02:06:52;12.50;;;7.10;;
48098;SDS011;33877;47.444;18.934;2022-08-19T02:09:20;12.35;;;6.97;;
48098;SDS011;33877;47.444;18.934;2022-08-19T02:11:48;21.42;;;8.10;;
48098;SDS011;33877;47.444;18.934;2022-08-19T02:14:17;13.98;;;7.70;;
48098;SDS011;33877;47.444;18.934;2022-08-19T02:16:45;19.92;;;8.30;;
48098;SDS011;33877;47.444;18.934;2022-08-19T02:19:14;15.80;;;7.87;;
48098;SDS011;33877;47.444;18.934;2022-08-19T02:21:42;12.68;;;7.20;;
48098;SDS011;33877;47.444;18.934;2022-08-19T02:24:11;10.65;;;7.55;;
48098;SDS011;33877;47.444;18.934;2022-08-19T02:26:42;11.32;;;7.22;;
48098;SDS011;33877;47.444;18.934;2022-08-19T02:29:12;11.20;;;7.45;;
48098;SDS011;33877;47.444;18.934;2022-08-19T02:31:43;9.52;;;7.50;;
48098;SDS011;33877;47.444;18.934;2022-08-19T02:34:13;10.80;;;7.57;;
48098;SDS011;33877;47.444;18.934;2022-08-19T02:36:46;12.90;;;7.47;;
48098;SDS011;33877;47.444;18.934;2022-08-19T02:39:19;14.98;;;11.48;;
48098;SDS011;33877;47.444;18.934;2022-08-19T02:41:51;13.95;;;9.52;;
48098;SDS011;33877;47.444;18.934;2022-08-19T02:44:22;13.00;;;8.15;;
48098;SDS011;33877;47.444;18.934;2022-08-19T02:46:59;11.23;;;7.30;;
48098;SDS011;33877;47.444;18.934;2022-08-19T02:49:30;10.40;;;7.12;;
48098;SDS011;33877;47.444;18.934;2022-08-19T02:52:04;13.23;;;7.55;;
48098;SDS011;33877;47.444;18.934;2022-08-19T02:54:34;9.90;;;7.57;;
48098;SDS011;33877;47.444;18.934;2022-08-19T02:57:02;10.07;;;7.68;;
48098;SDS011;33877;47.444;18.934;2022-08-19T02:59:31;16.12;;;9.18;;
48098;SDS011;33877;47.444;18.934;2022-08-19T03:02:00;13.18;;;8.40;;
48098;SDS011;33877;47.444;18.934;2022-08-19T03:04:28;11.45;;;7.60;;
48098;SDS011;33877;47.444;18.934;2022-08-19T03:06:58;10.35;;;7.07;;
48098;SDS011;33877;47.444;18.934;2022-08-19T03:09:37;15.27;;;7.68;;
48098;SDS011;33877;47.444;18.934;2022-08-19T03:12:06;11.50;;;7.45;;
48098;SDS011;33877;47.444;18.934;2022-08-19T03:14:34;9.43;;;7.20;;
48098;SDS011;33877;47.444;18.934;2022-08-19T03:17:03;11.30;;;8.02;;
48098;SDS011;33877;47.444;18.934;2022-08-19T03:19:31;12.85;;;7.95;;
48098;SDS011;33877;47.444;18.934;2022-08-19T03:21:59;12.52;;;7.90;;
48098;SDS011;33877;47.444;18.934;2022-08-19T03:24:28;11.88;;;7.90;;
48098;SDS011;33877;47.444;18.934;2022-08-19T03:26:57;11.12;;;7.40;;
48098;SDS011;33877;47.444;18.934;2022-08-19T03:29:29;12.68;;;8.60;;
48098;SDS011;33877;47.444;18.934;2022-08-19T03:32:01;13.95;;;7.30;;
48098;SDS011;33877;47.444;18.934;2022-08-19T03:34:36;13.30;;;7.45;;
48098;SDS011;33877;47.444;18.934;2022-08-19T03:37:09;13.20;;;7.72;;
48098;SDS011;33877;47.444;18.934;2022-08-19T03:39:41;20.23;;;8.95;;
48098;SDS011;33877;47.444;18.934;2022-08-19T03:42:10;15.02;;;7.97;;
48098;SDS011;33877;47.444;18.934;2022-08-19T03:44:58;10.90;;;7.80;;
48098;SDS011;33877;47.444;18.934;2022-08-19T03:47:27;12.00;;;8.55;;
48098;SDS011;33877;47.444;18.934;2022-08-19T03:49:54;13.98;;;8.00;;
48098;SDS011;33877;47.444;18.934;2022-08-19T03:52:23;12.35;;;8.38;;
48098;SDS011;33877;47.444;18.934;2022-08-19T03:54:51;17.20;;;8.60;;
48098;SDS011;33877;47.444;18.934;2022-08-19T03:57:20;11.43;;;7.05;;
48098;SDS011;33877;47.444;18.934;2022-08-19T04:00:00;13.23;;;7.75;;
48098;SDS011;33877;47.444;18.934;2022-08-19T04:02:41;22.37;;;8.30;;
48098;SDS011;33877;47.444;18.934;2022-08-19T04:05:27;17.67;;;8.25;;
48098;SDS011;33877;47.444;18.934;2022-08-19T04:07:56;18.83;;;8.85;;
48098;SDS011;33877;47.444;18.934;2022-08-19T04:10:27;12.33;;;8.73;;
48098;SDS011;33877;47.444;18.934;2022-08-19T04:12:55;13.15;;;8.82;;
48098;SDS011;33877;47.444;18.934;2022-08-19T04:15:25;20.77;;;9.13;;
48098;SDS011;33877;47.444;18.934;2022-08-19T04:17:53;17.87;;;8.25;;
48098;SDS011;33877;47.444;18.934;2022-08-19T04:20:21;13.43;;;8.23;;
48098;SDS011;33877;47.444;18.934;2022-08-19T04:22:50;12.05;;;7.05;;
48098;SDS011;33877;47.444;18.934;2022-08-19T04:25:18;14.43;;;8.25;;
48098;SDS011;33877;47.444;18.934;2022-08-19T04:27:47;21.30;;;9.05;;
48098;SDS011;33877;47.444;18.934;2022-08-19T04:30:16;13.75;;;8.27;;
48098;SDS011;33877;47.444;18.934;2022-08-19T04:32:45;11.40;;;7.87;;
48098;SDS011;33877;47.444;18.934;2022-08-19T04:35:14;13.50;;;7.57;;
48098;SDS011;33877;47.444;18.934;2022-08-19T04:40:13;11.20;;;7.87;;
48098;SDS011;33877;47.444;18.934;2022-08-19T04:43:01;15.48;;;8.07;;
48098;SDS011;33877;47.444;18.934;2022-08-19T04:45:29;17.33;;;8.80;;
48098;SDS011;33877;47.444;18.934;2022-08-19T04:48:10;19.17;;;9.10;;
48098;SDS011;33877;47.444;18.934;2022-08-19T04:50:54;14.05;;;7.95;;
48098;SDS011;33877;47.444;18.934;2022-08-19T04:53:27;14.63;;;8.75;;
48098;SDS011;33877;47.444;18.934;2022-08-19T04:56:05;13.25;;;8.73;;
48098;SDS011;33877;47.444;18.934;2022-08-19T04:58:38;11.77;;;8.15;;
48098;SDS011;33877;47.444;18.934;2022-08-19T05:01:13;11.65;;;7.50;;
48098;SDS011;33877;47.444;18.934;2022-08-19T05:03:46;13.48;;;7.65;;
48098;SDS011;33877;47.444;18.934;2022-08-19T05:06:15;12.77;;;7.87;;
48098;SDS011;33877;47.444;18.934;2022-08-19T05:08:45;15.05;;;8.68;;
48098;SDS011;33877;47.444;18.934;2022-08-19T05:11:19;12.95;;;7.87;;
48098;SDS011;33877;47.444;18.934;2022-08-19T05:13:54;15.32;;;8.45;;
48098;SDS011;33877;47.444;18.934;2022-08-19T05:16:23;12.32;;;8.50;;
48098;SDS011;33877;47.444;18.934;2022-08-19T05:18:54;15.02;;;9.75;;
48098;SDS011;33877;47.444;18.934;2022-08-19T05:21:41;14.98;;;7.95;;
48098;SDS011;33877;47.444;18.934;2022-08-19T05:24:28;15.65;;;9.05;;
48098;SDS011;33877;47.444;18.934;2022-08-19T05:26:59;15.57;;;8.20;;
48098;SDS011;33877;47.444;18.934;2022-08-19T05:29:29;12.67;;;7.40;;
48098;SDS011;33877;47.444;18.934;2022-08-19T05:32:05;10.65;;;7.30;;
48098;SDS011;33877;47.444;18.934;2022-08-19T05:34:37;16.05;;;8.55;;
48098;SDS011;33877;47.444;18.934;2022-08-19T05:37:06;12.68;;;7.05;;
48098;SDS011;33877;47.444;18.934;2022-08-19T05:39:35;14.45;;;7.68;;
48098;SDS011;33877;47.444;18.934;2022-08-19T05:42:05;16.27;;;7.28;;
48098;SDS011;33877;47.444;18.934;2022-08-19T05:44:37;12.50;;;7.00;;
48098;SDS011;33877;47.444;18.934;2022-08-19T05:47:08;12.85;;;7.68;;
48098;SDS011;33877;47.444;18.934;2022-08-19T05:49:38;12.90;;;6.97;;
48098;SDS011;33877;47.444;18.934;2022-08-19T05:52:07;10.68;;;6.95;;
48098;SDS011;33877;47.444;18.934;2022-08-19T05:54:39;11.27;;;7.07;;
48098;SDS011;33877;47.444;18.934;2022-08-19T05:57:10;9.48;;;6.47;;
48098;SDS011;33877;47.444;18.934;2022-08-19T05:59:40;10.80;;;7.00;;
48098;SDS011;33877;47.444;18.934;2022-08-19T06:02:08;11.68;;;7.10;;
48098;SDS011;33877;47.444;18.934;2022-08-19T06:04:37;14.40;;;7.62;;
48098;SDS011;33877;47.444;18.934;2022-08-19T06:07:06;11.65;;;6.60;;
48098;SDS011;33877;47.444;18.934;2022-08-19T06:09:40;16.48;;;6.68;;
48098;SDS011;33877;47.444;18.934;2022-08-19T06:12:30;11.25;;;6.68;;
48098;SDS011;33877;47.444;18.934;2022-08-19T06:15:06;12.90;;;6.62;;
48098;SDS011;33877;47.444;18.934;2022-08-19T06:17:36;13.70;;;6.75;;
48098;SDS011;33877;47.444;18.934;2022-08-19T06:20:06;12.32;;;7.03;;
48098;SDS011;33877;47.444;18.934;2022-08-19T06:22:41;10.75;;;6.50;;
48098;SDS011;33877;47.444;18.934;2022-08-19T06:25:13;11.23;;;6.32;;
48098;SDS011;33877;47.444;18.934;2022-08-19T06:27:41;10.10;;;6.18;;
48098;SDS011;33877;47.444;18.934;2022-08-19T06:30:30;11.48;;;6.53;;
48098;SDS011;33877;47.444;18.934;2022-08-19T06:32:58;11.65;;;7.25;;
48098;SDS011;33877;47.444;18.934;2022-08-19T06:35:27;12.25;;;7.30;;
48098;SDS011;33877;47.444;18.934;2022-08-19T06:37:59;10.23;;;6.45;;
48098;SDS011;33877;47.444;18.934;2022-08-19T06:40:28;12.70;;;6.40;;
48098;SDS011;33877;47.444;18.934;2022-08-19T06:42:58;10.07;;;6.90;;
48098;SDS011;33877;47.444;18.934;2022-08-19T06:45:30;10.20;;;6.22;;
48098;SDS011;33877;47.444;18.934;2022-08-19T06:48:07;13.65;;;6.95;;
48098;SDS011;33877;47.444;18.934;2022-08-19T06:50:38;11.55;;;5.85;;
48098;SDS011;33877;47.444;18.934;2022-08-19T06:53:07;12.93;;;6.53;;
48098;SDS011;33877;47.444;18.934;2022-08-19T06:55:34;13.57;;;6.40;;
48098;SDS011;33877;47.444;18.934;2022-08-19T06:58:04;20.67;;;7.65;;
48098;SDS011;33877;47.444;18.934;2022-08-19T07:00:32;13.13;;;7.32;;
48098;SDS011;33877;47.444;18.934;2022-08-19T07:03:02;13.90;;;6.50;;
48098;SDS011;33877;47.444;18.934;2022-08-19T07:05:39;9.68;;;6.40;;
48098;SDS011;33877;47.444;18.934;2022-08-19T07:08:12;15.35;;;7.15;;
48098;SDS011;33877;47.444;18.934;2022-08-19T07:10:44;9.75;;;6.30;;
48098;SDS011;33877;47.444;18.934;2022-08-19T07:13:13;10.70;;;6.65;;
48098;SDS011;33877;47.444;18.934;2022-08-19T07:15:41;12.65;;;7.37;;
48098;SDS011;33877;47.444;18.934;2022-08-19T07:18:09;9.65;;;6.05;;
48098;SDS011;33877;47.444;18.934;2022-08-19T07:20:38;12.85;;;6.15;;
48098;SDS011;33877;47.444;18.934;2022-08-19T07:23:09;9.07;;;5.90;;
48098;SDS011;33877;47.444;18.934;2022-08-19T07:25:42;13.05;;;6.03;;
48098;SDS011;33877;47.444;18.934;2022-08-19T07:28:19;12.73;;;6.25;;
48098;SDS011;33877;47.444;18.934;2022-08-19T07:30:51;10.25;;;6.50;;
48098;SDS011;33877;47.444;18.934;2022-08-19T07:33:19;10.32;;;6.18;;
48098;SDS011;33877;47.444;18.934;2022-08-19T07:35:48;9.98;;;6.32;;
48098;SDS011;33877;47.444;18.934;2022-08-19T07:38:17;12.27;;;6.25;;
48098;SDS011;33877;47.444;18.934;2022-08-19T07:40:45;12.52;;;5.62;;
48098;SDS011;33877;47.444;18.934;2022-08-19T07:43:14;12.80;;;6.53;;
48098;SDS011;33877;47.444;18.934;2022-08-19T07:45:44;8.35;;;5.82;;
48098;SDS011;33877;47.444;18.934;2022-08-19T07:48:13;10.50;;;6.12;;
48098;SDS011;33877;47.444;18.934;2022-08-19T07:50:41;11.70;;;6.45;;
48098;SDS011;33877;47.444;18.934;2022-08-19T07:53:09;12.45;;;6.35;;
48098;SDS011;33877;47.444;18.934;2022-08-19T07:55:38;9.65;;;6.70;;
48098;SDS011;33877;47.444;18.934;2022-08-19T07:58:12;15.32;;;6.80;;
48098;SDS011;33877;47.444;18.934;2022-08-19T08:00:43;12.27;;;5.80;;
48098;SDS011;33877;47.444;18.934;2022-08-19T08:03:12;16.42;;;7.03;;
48098;SDS011;33877;47.444;18.934;2022-08-19T08:05:41;16.35;;;7.20;;
48098;SDS011;33877;47.444;18.934;2022-08-19T08:08:29;13.35;;;8.40;;
48098;SDS011;33877;47.444;18.934;2022-08-19T08:11:20;14.73;;;6.43;;
48098;SDS011;33877;47.444;18.934;2022-08-19T08:13:50;8.40;;;5.95;;
48098;SDS011;33877;47.444;18.934;2022-08-19T08:16:28;9.32;;;6.12;;
48098;SDS011;33877;47.444;18.934;2022-08-19T08:18:58;9.60;;;5.55;;
48098;SDS011;33877;47.444;18.934;2022-08-19T08:21:27;10.77;;;5.87;;
48098;SDS011;33877;47.444;18.934;2022-08-19T08:23:55;8.75;;;5.72;;
48098;SDS011;33877;47.444;18.934;2022-08-19T08:26:24;10.75;;;5.87;;
48098;SDS011;33877;47.444;18.934;2022-08-19T08:28:54;11.38;;;6.60;;
48098;SDS011;33877;47.444;18.934;2022-08-19T08:31:22;12.50;;;7.03;;
48098;SDS011;33877;47.444;18.934;2022-08-19T08:33:51;11.27;;;6.28;;
48098;SDS011;33877;47.444;18.934;2022-08-19T08:36:19;11.18;;;5.82;;
48098;SDS011;33877;47.444;18.934;2022-08-19T08:38:47;9.07;;;5.47;;
48098;SDS011;33877;47.444;18.934;2022-08-19T08:41:35;9.98;;;4.85;;
48098;SDS011;33877;47.444;18.934;2022-08-19T08:44:21;8.13;;;5.28;;
48098;SDS011;33877;47.444;18.934;2022-08-19T08:46:53;9.85;;;5.25;;
48098;SDS011;33877;47.444;18.934;2022-08-19T08:52:00;9.10;;;5.45;;
48098;SDS011;33877;47.444;18.934;2022-08-19T08:54:35;8.85;;;5.25;;
48098;SDS011;33877;47.444;18.934;2022-08-19T08:57:13;13.60;;;5.93;;
48098;SDS011;33877;47.444;18.934;2022-08-19T08:59:46;9.65;;;5.12;;
48098;SDS011;33877;47.444;18.934;2022-08-19T09:02:18;8.25;;;4.62;;
48098;SDS011;33877;47.444;18.934;2022-08-19T09:04:47;11.70;;;5.70;;
48098;SDS011;33877;47.444;18.934;2022-08-19T09:16:09;8.98;;;5.70;;
48098;SDS011;33877;47.444;18.934;2022-08-19T09:18:55;12.32;;;6.12;;
48098;SDS011;33877;47.444;18.934;2022-08-19T09:21:25;10.13;;;5.80;;
48098;SDS011;33877;47.444;18.934;2022-08-19T09:24:00;14.25;;;5.78;;
48098;SDS011;33877;47.444;18.934;2022-08-19T09:26:30;11.27;;;5.90;;
48098;SDS011;33877;47.444;18.934;2022-08-19T09:29:19;12.60;;;5.50;;
48098;SDS011;33877;47.444;18.934;2022-08-19T09:31:50;9.23;;;4.90;;
48098;SDS011;33877;47.444;18.934;2022-08-19T09:34:17;11.73;;;5.80;;
48098;SDS011;33877;47.444;18.934;2022-08-19T09:36:49;12.75;;;7.35;;
48098;SDS011;33877;47.444;18.934;2022-08-19T09:39:21;9.63;;;5.37;;
48098;SDS011;33877;47.444;18.934;2022-08-19T09:41:49;9.27;;;6.15;;
48098;SDS011;33877;47.444;18.934;2022-08-19T09:44:17;11.55;;;5.97;;
48098;SDS011;33877;47.444;18.934;2022-08-19T09:46:48;9.00;;;5.65;;
48098;SDS011;33877;47.444;18.934;2022-08-19T09:49:18;9.30;;;5.25;;
48098;SDS011;33877;47.444;18.934;2022-08-19T09:51:50;8.40;;;5.30;;
48098;SDS011;33877;47.444;18.934;2022-08-19T09:56:52;11.00;;;5.72;;
48098;SDS011;33877;47.444;18.934;2022-08-19T09:59:20;9.20;;;5.32;;
48098;SDS011;33877;47.444;18.934;2022-08-19T10:01:48;8.07;;;5.15;;
48098;SDS011;33877;47.444;18.934;2022-08-19T10:04:17;10.77;;;5.75;;
48098;SDS011;33877;47.444;18.934;2022-08-19T10:06:47;14.25;;;6.32;;
48098;SDS011;33877;47.444;18.934;2022-08-19T10:09:20;9.63;;;5.55;;
48098;SDS011;33877;47.444;18.934;2022-08-19T10:12:01;9.75;;;5.43;;
48098;SDS011;33877;47.444;18.934;2022-08-19T10:14:30;14.50;;;5.30;;
48098;SDS011;33877;47.444;18.934;2022-08-19T10:16:58;11.27;;;5.45;;
48098;SDS011;33877;47.444;18.934;2022-08-19T10:19:44;9.43;;;4.62;;
48098;SDS011;33877;47.444;18.934;2022-08-19T10:22:22;13.45;;;5.60;;
48098;SDS011;33877;47.444;18.934;2022-08-19T10:24:53;8.75;;;5.32;;
48098;SDS011;33877;47.444;18.934;2022-08-19T10:27:21;7.55;;;4.85;;
48098;SDS011;33877;47.444;18.934;2022-08-19T10:29:49;9.63;;;5.95;;
48098;SDS011;33877;47.444;18.934;2022-08-19T10:32:17;16.92;;;6.18;;
48098;SDS011;33877;47.444;18.934;2022-08-19T10:35:01;8.25;;;4.90;;
48098;SDS011;33877;47.444;18.934;2022-08-19T10:37:32;13.98;;;5.15;;
48098;SDS011;33877;47.444;18.934;2022-08-19T10:40:02;6.72;;;4.82;;
48098;SDS011;33877;47.444;18.934;2022-08-19T10:42:31;8.15;;;4.78;;
48098;SDS011;33877;47.444;18.934;2022-08-19T10:45:02;11.48;;;5.35;;
48098;SDS011;33877;47.444;18.934;2022-08-19T10:47:33;9.73;;;5.30;;
48098;SDS011;33877;47.444;18.934;2022-08-19T10:50:01;10.77;;;5.97;;
48098;SDS011;33877;47.444;18.934;2022-08-19T10:52:55;11.40;;;5.60;;
48098;SDS011;33877;47.444;18.934;2022-08-19T10:55:23;8.85;;;5.57;;
48098;SDS011;33877;47.444;18.934;2022-08-19T10:58:10;8.23;;;4.97;;
48098;SDS011;33877;47.444;18.934;2022-08-19T11:00:40;11.48;;;6.03;;
48098;SDS011;33877;47.444;18.934;2022-08-19T11:03:10;13.30;;;6.78;;
48098;SDS011;33877;47.444;18.934;2022-08-19T11:05:38;16.73;;;6.57;;
48098;SDS011;33877;47.444;18.934;2022-08-19T11:08:08;16.77;;;7.50;;
48098;SDS011;33877;47.444;18.934;2022-08-19T11:10:50;10.07;;;6.45;;
48098;SDS011;33877;47.444;18.934;2022-08-19T11:13:27;9.05;;;6.32;;
48098;SDS011;33877;47.444;18.934;2022-08-19T11:16:03;13.90;;;7.80;;
48098;SDS011;33877;47.444;18.934;2022-08-19T11:18:40;13.43;;;6.97;;
48098;SDS011;33877;47.444;18.934;2022-08-19T11:21:14;14.77;;;7.47;;
48098;SDS011;33877;47.444;18.934;2022-08-19T11:23:45;15.18;;;8.18;;
48098;SDS011;33877;47.444;18.934;2022-08-19T11:26:14;16.37;;;8.30;;
48098;SDS011;33877;47.444;18.934;2022-08-19T11:28:42;20.35;;;16.70;;
48098;SDS011;33877;47.444;18.934;2022-08-19T11:31:17;24.58;;;13.35;;
48098;SDS011;33877;47.444;18.934;2022-08-19T11:33:47;18.30;;;11.93;;
48098;SDS011;33877;47.444;18.934;2022-08-19T11:36:19;17.05;;;11.80;;
48098;SDS011;33877;47.444;18.934;2022-08-19T11:38:49;19.10;;;11.45;;
48098;SDS011;33877;47.444;18.934;2022-08-19T11:41:18;13.70;;;9.25;;
48098;SDS011;33877;47.444;18.934;2022-08-19T11:43:48;13.55;;;9.40;;
48098;SDS011;33877;47.444;18.934;2022-08-19T11:46:16;14.70;;;9.13;;
48098;SDS011;33877;47.444;18.934;2022-08-19T11:48:44;12.95;;;10.55;;
48098;SDS011;33877;47.444;18.934;2022-08-19T11:51:14;13.98;;;11.73;;
48098;SDS011;33877;47.444;18.934;2022-08-19T11:53:46;16.50;;;12.27;;
48098;SDS011;33877;47.444;18.934;2022-08-19T11:56:15;18.92;;;12.90;;
48098;SDS011;33877;47.444;18.934;2022-08-19T11:58:43;19.02;;;13.18;;
48098;SDS011;33877;47.444;18.934;2022-08-19T12:01:11;24.15;;;13.32;;
48098;SDS011;33877;47.444;18.934;2022-08-19T12:03:45;16.48;;;13.43;;
48098;SDS011;33877;47.444;18.934;2022-08-19T12:06:16;21.55;;;13.88;;
48098;SDS011;33877;47.444;18.934;2022-08-19T12:08:46;18.08;;;12.93;;
48098;SDS011;33877;47.444;18.934;2022-08-19T12:11:15;16.50;;;12.43;;
48098;SDS011;33877;47.444;18.934;2022-08-19T12:13:43;13.57;;;10.88;;
48098;SDS011;33877;47.444;18.934;2022-08-19T12:16:16;17.67;;;13.15;;
48098;SDS011;33877;47.444;18.934;2022-08-19T12:18:46;16.08;;;11.65;;
48098;SDS011;33877;47.444;18.934;2022-08-19T12:21:16;16.45;;;9.68;;
48098;SDS011;33877;47.444;18.934;2022-08-19T12:23:54;14.40;;;11.45;;
48098;SDS011;33877;47.444;18.934;2022-08-19T12:26:23;15.07;;;10.17;;
48098;SDS011;33877;47.444;18.934;2022-08-19T12:28:52;20.83;;;11.38;;
48098;SDS011;33877;47.444;18.934;2022-08-19T12:31:20;13.90;;;9.65;;
48098;SDS011;33877;47.444;18.934;2022-08-19T12:33:49;15.88;;;10.25;;
48098;SDS011;33877;47.444;18.934;2022-08-19T12:36:17;15.98;;;10.63;;
48098;SDS011;33877;47.444;18.934;2022-08-19T12:38:45;19.58;;;7.53;;
48098;SDS011;33877;47.444;18.934;2022-08-19T12:41:15;9.13;;;5.50;;
48098;SDS011;33877;47.444;18.934;2022-08-19T12:43:45;13.27;;;5.40;;
48098;SDS011;33877;47.444;18.934;2022-08-19T12:46:16;13.62;;;5.07;;
48098;SDS011;33877;47.444;18.934;2022-08-19T12:48:45;9.90;;;5.10;;
48098;SDS011;33877;47.444;18.934;2022-08-19T12:51:17;11.25;;;5.50;;
48098;SDS011;33877;47.444;18.934;2022-08-19T12:53:47;11.20;;;5.60;;
48098;SDS011;33877;47.444;18.934;2022-08-19T12:56:15;8.85;;;4.93;;
48098;SDS011;33877;47.444;18.934;2022-08-19T12:58:49;10.18;;;4.25;;
48098;SDS011;33877;47.444;18.934;2022-08-19T13:01:21;9.23;;;4.53;;
48098;SDS011;33877;47.444;18.934;2022-08-19T13:03:50;8.55;;;5.07;;
48098;SDS011;33877;47.444;18.934;2022-08-19T13:06:21;11.32;;;4.37;;
48098;SDS011;33877;47.444;18.934;2022-08-19T13:08:50;10.50;;;4.07;;
48098;SDS011;33877;47.444;18.934;2022-08-19T13:11:25;11.27;;;4.82;;
48098;SDS011;33877;47.444;18.934;2022-08-19T13:13:55;16.67;;;5.40;;
48098;SDS011;33877;47.444;18.934;2022-08-19T13:16:23;11.40;;;4.18;;
48098;SDS011;33877;47.444;18.934;2022-08-19T13:18:50;8.55;;;4.10;;
48098;SDS011;33877;47.444;18.934;2022-08-19T13:21:20;10.57;;;4.93;;
48098;SDS011;33877;47.444;18.934;2022-08-19T13:23:50;9.55;;;4.12;;
48098;SDS011;33877;47.444;18.934;2022-08-19T13:26:18;10.02;;;4.60;;
48098;SDS011;33877;47.444;18.934;2022-08-19T13:28:46;11.40;;;4.82;;
48098;SDS011;33877;47.444;18.934;2022-08-19T13:31:34;9.25;;;4.68;;
48098;SDS011;33877;47.444;18.934;2022-08-19T13:34:26;11.00;;;4.20;;
48098;SDS011;33877;47.444;18.934;2022-08-19T13:36:58;13.90;;;4.07;;
48098;SDS011;33877;47.444;18.934;2022-08-19T13:39:27;19.12;;;4.85;;
48098;SDS011;33877;47.444;18.934;2022-08-19T13:41:55;19.12;;;4.70;;
48098;SDS011;33877;47.444;18.934;2022-08-19T13:44:23;40.30;;;5.68;;
48098;SDS011;33877;47.444;18.934;2022-08-19T13:46:52;28.33;;;5.25;;
48098;SDS011;33877;47.444;18.934;2022-08-19T13:49:20;29.10;;;4.70;;
48098;SDS011;33877;47.444;18.934;2022-08-19T13:51:50;17.65;;;4.45;;
48098;SDS011;33877;47.444;18.934;2022-08-19T13:54:18;17.45;;;5.20;;
48098;SDS011;33877;47.444;18.934;2022-08-19T13:56:46;12.05;;;3.05;;
48098;SDS011;33877;47.444;18.934;2022-08-19T13:59:13;14.55;;;4.25;;
48098;SDS011;33877;47.444;18.934;2022-08-19T14:01:42;15.27;;;3.85;;
48098;SDS011;33877;47.444;18.934;2022-08-19T14:04:10;13.25;;;3.70;;
48098;SDS011;33877;47.444;18.934;2022-08-19T14:06:38;11.82;;;3.65;;
48098;SDS011;33877;47.444;18.934;2022-08-19T14:09:07;15.10;;;3.90;;
48098;SDS011;33877;47.444;18.934;2022-08-19T14:11:35;11.00;;;4.00;;
48098;SDS011;33877;47.444;18.934;2022-08-19T14:14:04;9.98;;;3.30;;
48098;SDS011;33877;47.444;18.934;2022-08-19T14:16:32;13.73;;;3.53;;
48098;SDS011;33877;47.444;18.934;2022-08-19T14:19:01;12.05;;;3.83;;
48098;SDS011;33877;47.444;18.934;2022-08-19T14:21:29;16.50;;;3.72;;
48098;SDS011;33877;47.444;18.934;2022-08-19T14:23:57;14.38;;;4.12;;
48098;SDS011;33877;47.444;18.934;2022-08-19T14:26:25;12.95;;;4.35;;
48098;SDS011;33877;47.444;18.934;2022-08-19T14:28:54;11.12;;;3.35;;
48098;SDS011;33877;47.444;18.934;2022-08-19T14:31:24;18.12;;;3.03;;
48098;SDS011;33877;47.444;18.934;2022-08-19T14:33:57;11.98;;;3.05;;
48098;SDS011;33877;47.444;18.934;2022-08-19T14:36:25;12.18;;;2.87;;
48098;SDS011;33877;47.444;18.934;2022-08-19T14:38:54;10.52;;;2.30;;
48098;SDS011;33877;47.444;18.934;2022-08-19T14:41:23;11.32;;;2.70;;
48098;SDS011;33877;47.444;18.934;2022-08-19T14:43:52;10.73;;;3.17;;
48098;SDS011;33877;47.444;18.934;2022-08-19T14:46:22;19.27;;;5.10;;
48098;SDS011;33877;47.444;18.934;2022-08-19T14:48:55;12.70;;;2.78;;
48098;SDS011;33877;47.444;18.934;2022-08-19T14:51:26;9.52;;;2.90;;
48098;SDS011;33877;47.444;18.934;2022-08-19T14:53:55;12.35;;;2.50;;
48098;SDS011;33877;47.444;18.934;2022-08-19T14:56:28;10.93;;;2.90;;
48098;SDS011;33877;47.444;18.934;2022-08-19T14:58:58;12.57;;;3.10;;
48098;SDS011;33877;47.444;18.934;2022-08-19T15:01:28;10.20;;;2.50;;
48098;SDS011;33877;47.444;18.934;2022-08-19T15:06:26;13.07;;;3.22;;
48098;SDS011;33877;47.444;18.934;2022-08-19T15:09:02;11.60;;;2.45;;
48098;SDS011;33877;47.444;18.934;2022-08-19T15:11:33;12.07;;;2.62;;
48098;SDS011;33877;47.444;18.934;2022-08-19T15:14:07;10.35;;;2.80;;